Terminal Aerodrome Forecast
Issued by NWS

Home | Current Version | Previous Version | Text Only | Print | Product List | Glossary On
Versions: 1 2 3 4 5 6 7 8 9 10 11 12 13 14 15 16 17 18 19 20 21 22 23 24
000
FTUS42 KMHX 251301 AAA
TAFOAJ
TAF AMD
KOAJ 251301Z 2513/2612 03006KT 5SM BR OVC025
      TEMPO 2513/2514 BKN009
     FM251400 05008KT P6SM BKN025
     FM251800 04006KT P6SM VCSH BKN035
     FM252300 04004KT P6SM SCT035
      AMD LTD TO CLD VIS AND WIND=

USA.gov is the U.S. government's official web portal to all federal, state and local government web resources and services.